Watauga, Texas
Current Conditions -  °F | °C
As of 1:53 PM on Saturday 25 Oct 2014 (Local Time) from KFTW Reporting Station
Clear Clear  
Wind Chill: 87°   Ceiling: Unl
Heat Index: 87°   Visibility: 10mi
Dew Point: 61°   Wind: 10mph
Humidity: 41%   Direction: 210°SSW
Pressure: 30.09"   Gusts: NA
Location:  32.8687°N, 97.2516°W
Report Text: KFTW 251853Z 21009KT 10SM CLR 31/16 A3009 RMK AO2 SLP180 T03060161
Loading
Personal Weather Stations






























Interactive Weather Map New forecast layout! Learn more

10-Day Weather Forecast

Advertisements
Track Severe Weather on mobile